createdAt,value
2018-01-01T00:00:29.616Z,110.73
2018-01-01T00:02:55.807Z,105.87
2018-01-01T00:05:22.035Z,121.27
2018-01-01T00:07:49.028Z,122.77
2018-01-01T00:10:15.168Z,129.73
2018-01-01T00:12:41.409Z,113.73
2018-01-01T00:15:07.662Z,106.80
2018-01-01T00:17:33.898Z,111.37
2018-01-01T00:20:00.854Z,96.40
2018-01-01T00:22:27.771Z,87.90
2018-01-01T00:24:53.965Z,106.70
2018-01-01T00:27:20.175Z,87.63
2018-01-01T00:29:46.414Z,76.20
2018-01-01T00:32:12.596Z,88.10
2018-01-01T00:34:38.809Z,87.50
2018-01-01T00:37:05.732Z,73.30
2018-01-01T00:39:31.866Z,75.63
2018-01-01T00:41:58.048Z,61.33
2018-01-01T00:44:24.226Z,69.07
2018-01-01T00:46:50.443Z,63.30
2018-01-01T00:49:16.629Z,56.80
2018-01-01T00:51:42.847Z,52.97
2018-01-01T00:54:09.781Z,51.47
2018-01-01T00:56:36.708Z,48.37
2018-01-01T00:59:03.705Z,50.00
2018-01-01T01:01:29.909Z,50.53
2018-01-01T01:03:56.878Z,51.00
2018-01-01T01:06:23.031Z,38.30
2018-01-01T01:08:49.221Z,42.77
2018-01-01T01:11:15.409Z,39.27
2018-01-01T01:13:42.343Z,40.13
2018-01-01T01:16:08.562Z,39.80
2018-01-01T01:18:34.734Z,32.50
2018-01-01T01:21:01.658Z,32.43
2018-01-01T01:23:27.861Z,34.13
2018-01-01T01:25:54.046Z,34.50
2018-01-01T01:28:20.971Z,27.93
2018-01-01T01:30:47.917Z,24.63
2018-01-01T01:33:14.834Z,15.33
2018-01-01T01:35:41.051Z,16.10
2018-01-01T01:38:07.239Z,13.87
2018-01-01T01:40:33.443Z,10.47
2018-01-01T01:43:00.360Z,9.80
2018-01-01T01:45:26.555Z,13.27
2018-01-01T01:47:52.746Z,12.47
2018-01-01T01:50:19.644Z,8.67
2018-01-01T01:52:45.847Z,11.80
2018-01-01T01:55:12.026Z,9.30
2018-01-01T01:57:38.191Z,12.20
2018-01-01T02:00:05.154Z,9.40
2018-01-01T02:02:31.382Z,7.67
2018-01-01T02:04:57.586Z,6.90
2018-01-01T02:07:23.816Z,8.90
2018-01-01T02:09:50.752Z,8.20
2018-01-01T02:12:17.699Z,7.40
2018-01-01T02:14:44.655Z,6.73
2018-01-01T02:17:11.601Z,5.60
2018-01-01T02:19:37.821Z,6.80
2018-01-01T02:22:04.790Z,6.07
2018-01-01T02:24:31.019Z,6.37
2018-01-01T02:26:57.204Z,8.80
2018-01-01T02:29:23.404Z,5.70
2018-01-01T02:31:49.587Z,10.10
2018-01-01T02:34:15.812Z,6.90
2018-01-01T02:36:41.965Z,6.53
2018-01-01T02:39:08.195Z,8.10
2018-01-01T02:41:34.335Z,10.40
2018-01-01T02:44:00.503Z,8.07
2018-01-01T02:46:27.475Z,10.33
2018-01-01T02:48:53.664Z,9.40
2018-01-01T02:51:19.851Z,8.70
2018-01-01T02:53:46.039Z,7.60
2018-01-01T02:56:12.259Z,6.27
2018-01-01T02:58:39.197Z,9.73
2018-01-01T03:01:06.138Z,7.60
2018-01-01T03:03:32.368Z,7.10
2018-01-01T03:05:58.548Z,7.30
2018-01-01T03:08:24.730Z,8.20
2018-01-01T03:10:51.648Z,7.27
2018-01-01T03:13:17.881Z,4.70
2018-01-01T03:15:44.075Z,8.20
2018-01-01T03:18:10.286Z,8.50
2018-01-01T03:20:36.466Z,6.50
2018-01-01T03:23:03.403Z,6.57
2018-01-01T03:25:30.324Z,4.83
2018-01-01T03:27:56.550Z,4.50
2018-01-01T03:30:22.722Z,2.87
2018-01-01T03:32:48.925Z,3.77
2018-01-01T03:35:15.143Z,3.67
2018-01-01T03:37:41.280Z,4.70
2018-01-01T03:40:07.448Z,3.67
2018-01-01T03:42:34.349Z,4.33
2018-01-01T03:45:00.557Z,5.73
2018-01-01T03:47:26.725Z,7.43
2018-01-01T03:49:53.640Z,7.47
2018-01-01T03:52:19.865Z,3.17
2018-01-01T03:54:46.012Z,5.07
2018-01-01T03:57:12.216Z,6.60
2018-01-01T03:59:38.447Z,4.20
2018-01-01T04:02:04.669Z,4.03
2018-01-01T04:04:30.843Z,4.77
2018-01-01T04:06:57.012Z,3.57
2018-01-01T04:09:23.194Z,5.43
2018-01-01T04:11:49.391Z,4.00
2018-01-01T04:14:15.557Z,4.40
2018-01-01T04:16:42.522Z,2.67
2018-01-01T04:19:08.735Z,2.00
2018-01-01T04:21:35.650Z,5.33
2018-01-01T04:24:01.798Z,5.13
2018-01-01T04:26:28.687Z,5.47
2018-01-01T04:28:54.895Z,6.73
2018-01-01T04:31:21.053Z,4.43
2018-01-01T04:33:47.228Z,3.13
2018-01-01T04:36:14.159Z,3.83
2018-01-01T04:38:40.350Z,3.00
2018-01-01T04:41:06.596Z,5.03
2018-01-01T04:43:32.841Z,6.50
2018-01-01T04:45:59.061Z,6.43
2018-01-01T04:48:25.972Z,5.67
2018-01-01T04:50:52.147Z,4.13
2018-01-01T04:53:18.338Z,3.03
2018-01-01T04:55:44.522Z,2.93
2018-01-01T04:58:11.452Z,4.50
2018-01-01T05:00:38.424Z,1.57
2018-01-01T05:03:04.676Z,3.33
2018-01-01T05:05:30.855Z,3.00
2018-01-01T05:07:57.087Z,2.07
2018-01-01T05:10:24.015Z,5.17
2018-01-01T05:12:50.234Z,3.60
2018-01-01T05:15:16.377Z,4.83
2018-01-01T05:17:42.591Z,4.27
2018-01-01T05:20:08.785Z,3.17
2018-01-01T05:22:34.986Z,2.23
2018-01-01T05:25:01.174Z,2.00
2018-01-01T05:27:28.117Z,3.20
2018-01-01T05:29:54.334Z,2.60
2018-01-01T05:32:20.496Z,4.00
2018-01-01T05:34:47.407Z,10.70
2018-01-01T05:37:14.311Z,2.43
2018-01-01T05:39:40.473Z,2.77
2018-01-01T05:42:06.620Z,1.93
2018-01-01T05:44:33.560Z,1.43
2018-01-01T05:46:59.718Z,1.50
2018-01-01T05:49:26.627Z,4.00
2018-01-01T05:51:52.814Z,8.83
2018-01-01T05:54:19.031Z,9.00
2018-01-01T05:56:45.209Z,3.80
2018-01-01T05:59:12.164Z,3.60
2018-01-01T06:01:38.375Z,6.27
2018-01-01T06:04:04.550Z,3.57
2018-01-01T06:06:30.761Z,4.63
2018-01-01T06:08:56.958Z,5.97
2018-01-01T06:11:23.117Z,9.53
2018-01-01T06:13:50.056Z,4.27
2018-01-01T06:16:16.270Z,3.03
2018-01-01T06:18:42.420Z,4.33
2018-01-01T06:21:09.332Z,3.60
2018-01-01T06:23:35.538Z,10.90
2018-01-01T06:26:02.192Z,4.73
2018-01-01T06:28:28.359Z,6.43
2018-01-01T06:30:55.220Z,8.60
2018-01-01T06:33:21.444Z,8.03
2018-01-01T06:35:47.644Z,5.20
2018-01-01T06:38:13.820Z,4.40
2018-01-01T06:40:39.969Z,4.97
2018-01-01T06:43:06.150Z,3.60
2018-01-01T06:45:33.084Z,6.77
2018-01-01T06:48:00.053Z,2.77
2018-01-01T06:50:26.279Z,2.33
2018-01-01T06:52:52.448Z,6.40
2018-01-01T06:55:18.635Z,1.00
2018-01-01T06:57:44.861Z,4.50
2018-01-01T07:00:11.095Z,5.17
2018-01-01T07:02:37.282Z,4.77
2018-01-01T07:05:04.315Z,3.63
2018-01-01T07:07:31.277Z,1.53
2018-01-01T07:09:58.233Z,4.97
2018-01-01T07:12:25.218Z,6.10
2018-01-01T07:14:51.393Z,3.20
2018-01-01T07:17:17.539Z,22.03
2018-01-01T07:19:44.412Z,2.83
2018-01-01T07:22:10.596Z,9.40
2018-01-01T07:24:37.533Z,1.87
2018-01-01T07:27:03.746Z,5.80
2018-01-01T07:29:30.644Z,8.20
2018-01-01T07:31:56.807Z,4.10
2018-01-01T07:34:22.984Z,2.50
2018-01-01T07:36:49.912Z,4.73
2018-01-01T07:39:16.906Z,3.63
2018-01-01T07:41:43.056Z,3.50
2018-01-01T07:44:09.301Z,5.17
2018-01-01T07:46:35.517Z,9.63
2018-01-01T07:49:01.673Z,8.43
2018-01-01T07:51:28.613Z,9.53
2018-01-01T07:53:55.550Z,3.73
2018-01-01T07:56:22.493Z,2.37
2018-01-01T07:58:48.642Z,3.67
2018-01-01T08:01:15.525Z,12.07
2018-01-01T08:03:41.770Z,4.83
2018-01-01T08:06:07.982Z,5.23
2018-01-01T08:08:34.179Z,10.90
2018-01-01T08:11:00.404Z,8.17
2018-01-01T08:13:27.322Z,6.03
2018-01-01T08:15:54.288Z,6.30
2018-01-01T08:18:20.497Z,6.33
2018-01-01T08:20:47.421Z,4.00
2018-01-01T08:23:13.590Z,3.53
2018-01-01T08:25:40.488Z,1.70
2018-01-01T08:28:06.732Z,4.17
2018-01-01T08:30:32.979Z,2.60
2018-01-01T08:32:59.896Z,4.10
2018-01-01T08:35:26.126Z,1.17
2018-01-01T08:37:52.384Z,4.10
2018-01-01T08:40:19.292Z,3.43
2018-01-01T08:42:45.470Z,7.83
2018-01-01T08:45:11.706Z,7.23
2018-01-01T08:47:37.875Z,7.23
2018-01-01T08:50:04.018Z,10.03
2018-01-01T08:52:30.947Z,3.43
2018-01-01T08:54:57.152Z,4.67
2018-01-01T08:57:23.410Z,4.40
2018-01-01T08:59:50.350Z,2.67
2018-01-01T09:02:16.552Z,6.00
2018-01-01T09:04:42.717Z,7.70
2018-01-01T09:07:08.929Z,2.87
2018-01-01T09:09:35.117Z,5.27
2018-01-01T09:12:01.306Z,1.80
2018-01-01T09:14:27.487Z,3.27
2018-01-01T09:16:53.773Z,3.90
2018-01-01T09:19:20.649Z,3.07
2018-01-01T09:21:46.866Z,4.73
2018-01-01T09:24:13.098Z,2.50
2018-01-01T09:26:39.331Z,8.33
2018-01-01T09:29:05.509Z,2.63
2018-01-01T09:31:32.412Z,5.23
2018-01-01T09:33:58.637Z,5.80
2018-01-01T09:36:24.837Z,3.40
2018-01-01T09:38:51.806Z,7.20
2018-01-01T09:41:18.039Z,4.73
2018-01-01T09:43:44.246Z,3.87
2018-01-01T09:46:11.138Z,5.23
2018-01-01T09:48:37.319Z,3.67
2018-01-01T09:51:03.555Z,3.70
2018-01-01T09:53:29.775Z,4.90
2018-01-01T09:55:56.014Z,5.70
2018-01-01T09:58:22.275Z,6.07
2018-01-01T10:00:48.511Z,7.43
2018-01-01T10:03:14.734Z,7.60
2018-01-01T10:05:41.012Z,2.23
2018-01-01T10:08:07.961Z,8.23
2018-01-01T10:10:34.891Z,2.20
2018-01-01T10:13:01.869Z,3.47
2018-01-01T10:15:28.009Z,2.47
2018-01-01T10:17:54.205Z,3.10
2018-01-01T10:20:20.402Z,5.07
2018-01-01T10:22:46.610Z,4.50
2018-01-01T10:25:12.869Z,5.97
2018-01-01T10:27:39.774Z,6.10
2018-01-01T10:30:06.062Z,5.07
2018-01-01T10:32:32.246Z,2.27
2018-01-01T10:34:58.460Z,2.40
2018-01-01T10:37:24.682Z,2.90
2018-01-01T10:39:50.893Z,3.13
2018-01-01T10:42:17.151Z,3.13
2018-01-01T10:44:43.354Z,6.83
2018-01-01T10:47:09.514Z,5.50
2018-01-01T10:49:35.673Z,4.83
2018-01-01T10:52:02.641Z,6.63
2018-01-01T10:54:28.836Z,4.83
2018-01-01T10:56:55.078Z,2.00
2018-01-01T10:59:22.138Z,3.63
2018-01-01T11:01:48.337Z,4.80
2018-01-01T11:04:15.321Z,3.83
2018-01-01T11:06:41.506Z,6.77
2018-01-01T11:09:07.656Z,1.93
2018-01-01T11:11:34.662Z,2.20
2018-01-01T11:14:00.869Z,4.93
2018-01-01T11:16:27.060Z,4.17
2018-01-01T11:18:54.000Z,7.20
2018-01-01T11:21:20.964Z,6.27
2018-01-01T11:23:47.153Z,5.43
2018-01-01T11:26:13.361Z,1.80
2018-01-01T11:28:39.557Z,4.03
2018-01-01T11:31:05.749Z,6.10
2018-01-01T11:33:32.701Z,3.90
2018-01-01T11:35:59.665Z,7.93
2018-01-01T11:38:25.871Z,5.93
2018-01-01T11:40:52.827Z,5.60
2018-01-01T11:43:19.693Z,3.57
2018-01-01T11:45:45.944Z,3.33
2018-01-01T11:48:12.273Z,3.27
2018-01-01T11:50:38.532Z,1.93
2018-01-01T11:53:04.724Z,4.57
2018-01-01T11:55:30.926Z,5.00
2018-01-01T11:57:57.115Z,7.20
2018-01-01T12:00:23.296Z,3.33
2018-01-01T12:02:49.487Z,4.10
2018-01-01T12:05:16.392Z,5.10
2018-01-01T12:07:42.612Z,4.83
2018-01-01T12:10:08.799Z,9.27
2018-01-01T12:12:35.010Z,4.07
2018-01-01T12:15:01.928Z,6.10
2018-01-01T12:17:28.133Z,3.43
2018-01-01T12:19:54.367Z,3.83
2018-01-01T12:22:20.532Z,6.33
2018-01-01T12:24:47.475Z,24.13
2018-01-01T12:27:13.654Z,5.23
2018-01-01T12:29:39.870Z,1.27
2018-01-01T12:32:06.081Z,5.17
2018-01-01T12:34:32.253Z,3.93
2018-01-01T12:36:58.437Z,5.57
2018-01-01T12:39:24.639Z,6.83
2018-01-01T12:41:50.823Z,3.33
2018-01-01T12:44:16.984Z,4.70
2018-01-01T12:46:43.240Z,4.43
2018-01-01T12:49:10.168Z,2.40
2018-01-01T12:51:37.110Z,3.17
2018-01-01T12:54:04.031Z,2.43
2018-01-01T12:56:30.269Z,5.27
2018-01-01T12:58:56.447Z,3.00
2018-01-01T13:01:22.664Z,4.10
2018-01-01T13:03:48.890Z,4.10
2018-01-01T13:06:15.112Z,4.57
2018-01-01T13:08:41.304Z,4.63
2018-01-01T13:11:08.321Z,4.20
2018-01-01T13:13:34.532Z,5.33
2018-01-01T13:16:00.790Z,3.53
2018-01-01T13:18:27.026Z,1.67
2018-01-01T13:20:53.197Z,5.53
2018-01-01T13:23:20.185Z,4.10
2018-01-01T13:25:46.345Z,1.37
2018-01-01T13:28:13.220Z,6.00
2018-01-01T13:30:39.415Z,1.93
2018-01-01T13:33:05.571Z,4.27
2018-01-01T13:35:32.488Z,4.37
2018-01-01T13:37:58.714Z,3.10
2018-01-01T13:40:24.970Z,4.50
2018-01-01T13:42:51.875Z,3.80
2018-01-01T13:45:18.074Z,3.13
2018-01-01T13:47:44.294Z,7.53
2018-01-01T13:50:10.527Z,5.20
2018-01-01T13:52:36.750Z,6.30
2018-01-01T13:55:02.932Z,1.33
2018-01-01T13:57:29.110Z,6.73
2018-01-01T13:59:55.266Z,2.30
2018-01-01T14:02:21.469Z,6.27
2018-01-01T14:04:47.654Z,5.37
2018-01-01T14:07:14.585Z,1.30
2018-01-01T14:09:40.766Z,4.33
2018-01-01T14:12:06.905Z,1.83
2018-01-01T14:14:33.122Z,3.83
2018-01-01T14:16:59.262Z,7.40
2018-01-01T14:19:25.459Z,5.93
2018-01-01T14:21:51.654Z,2.93
2018-01-01T14:24:17.841Z,3.43
2018-01-01T14:26:44.058Z,9.40
2018-01-01T14:29:10.278Z,8.97
2018-01-01T14:31:36.505Z,3.53
2018-01-01T14:34:02.668Z,6.80
2018-01-01T14:36:28.826Z,1.50
2018-01-01T14:38:55.753Z,4.83
2018-01-01T14:41:21.952Z,1.47
2018-01-01T14:43:48.162Z,6.90
2018-01-01T14:46:14.342Z,4.67
2018-01-01T14:48:40.572Z,4.57
2018-01-01T14:51:07.557Z,4.43
2018-01-01T14:53:33.738Z,1.60
2018-01-01T14:56:00.645Z,2.83
2018-01-01T14:58:26.856Z,4.93
2018-01-01T15:00:53.037Z,4.17
2018-01-01T15:03:20.015Z,5.70
2018-01-01T15:05:46.253Z,4.83
2018-01-01T15:08:12.490Z,5.90
2018-01-01T15:10:38.706Z,5.27
2018-01-01T15:13:04.856Z,3.83
2018-01-01T15:15:31.095Z,2.37
2018-01-01T15:17:57.305Z,3.40
2018-01-01T15:20:23.520Z,10.73
2018-01-01T15:22:49.765Z,5.00
2018-01-01T15:25:15.954Z,10.27
2018-01-01T15:27:42.981Z,10.00
2018-01-01T15:30:09.179Z,9.00
2018-01-01T15:32:35.358Z,9.20
2018-01-01T15:35:02.227Z,9.73
2018-01-01T15:37:28.383Z,15.90
2018-01-01T15:39:54.587Z,7.70
2018-01-01T15:42:20.819Z,8.80
2018-01-01T15:44:47.029Z,8.20
2018-01-01T15:47:13.266Z,4.27
2018-01-01T15:49:39.475Z,5.80
2018-01-01T15:52:05.663Z,7.03
2018-01-01T15:54:31.903Z,4.70
2018-01-01T15:56:58.158Z,4.70
2018-01-01T15:59:25.177Z,9.20
2018-01-01T16:01:51.416Z,2.00
2018-01-01T16:04:18.397Z,6.23
2018-01-01T16:06:44.649Z,12.30
2018-01-01T16:09:10.863Z,12.87
2018-01-01T16:11:37.895Z,10.27
2018-01-01T16:14:04.051Z,6.07
2018-01-01T16:16:30.241Z,6.97
2018-01-01T16:18:57.151Z,3.73
2018-01-01T16:21:24.090Z,10.20
2018-01-01T16:23:50.233Z,5.07
2018-01-01T16:26:16.428Z,4.03
2018-01-01T16:28:42.615Z,10.50
2018-01-01T16:31:09.549Z,9.80
2018-01-01T16:33:36.480Z,7.87
2018-01-01T16:36:03.451Z,7.10
2018-01-01T16:38:29.736Z,7.47
2018-01-01T16:40:55.897Z,11.73
2018-01-01T16:43:22.811Z,7.20
2018-01-01T16:45:49.716Z,13.33
2018-01-01T16:48:15.926Z,7.67
2018-01-01T16:50:42.146Z,9.70
2018-01-01T16:53:08.999Z,5.80
2018-01-01T16:55:35.204Z,7.03
2018-01-01T16:58:02.130Z,5.27
2018-01-01T17:00:28.363Z,6.43
2018-01-01T17:02:54.488Z,5.40
2018-01-01T17:05:21.443Z,14.40
2018-01-01T17:07:47.583Z,6.90
2018-01-01T17:10:14.567Z,3.93
2018-01-01T17:12:40.771Z,5.87
2018-01-01T17:15:07.007Z,7.70
2018-01-01T17:17:33.250Z,5.63
2018-01-01T17:19:59.436Z,8.93
2018-01-01T17:22:26.409Z,4.37
2018-01-01T17:24:52.622Z,4.37
2018-01-01T17:27:18.874Z,2.83
2018-01-01T17:29:45.094Z,8.90
2018-01-01T17:32:11.326Z,7.60
2018-01-01T17:34:37.594Z,1.10
2018-01-01T17:37:03.808Z,2.80
2018-01-01T17:39:30.889Z,8.10
2018-01-01T17:41:57.863Z,4.63
2018-01-01T17:44:24.080Z,3.77
2018-01-01T17:46:51.042Z,6.60
2018-01-01T17:49:17.275Z,8.57
2018-01-01T17:51:43.440Z,5.10
2018-01-01T17:54:09.594Z,8.33
2018-01-01T17:56:35.864Z,6.53
2018-01-01T17:59:02.046Z,4.10
2018-01-01T18:01:29.161Z,6.40
2018-01-01T18:03:55.458Z,4.80
2018-01-01T18:06:21.691Z,2.07
2018-01-01T18:08:47.850Z,4.37
2018-01-01T18:11:14.098Z,5.20
2018-01-01T18:13:41.051Z,3.40
2018-01-01T18:16:07.283Z,4.83
2018-01-01T18:18:34.159Z,7.90
2018-01-01T18:21:00.331Z,4.13
2018-01-01T18:23:26.573Z,2.90
2018-01-01T18:25:52.726Z,14.33
2018-01-01T18:28:19.688Z,2.60
2018-01-01T18:30:45.902Z,4.43
2018-01-01T18:33:12.854Z,2.77
2018-01-01T18:35:38.975Z,3.73
2018-01-01T18:38:05.879Z,4.10
2018-01-01T18:40:32.093Z,6.40
2018-01-01T18:42:58.325Z,9.87
2018-01-01T18:45:24.527Z,2.17
2018-01-01T18:47:50.750Z,1.83
2018-01-01T18:50:16.937Z,2.97
2018-01-01T18:52:43.112Z,4.33
2018-01-01T18:55:09.246Z,5.67
2018-01-01T18:57:35.433Z,2.70
2018-01-01T19:00:02.504Z,3.80
2018-01-01T19:02:28.734Z,2.50
2018-01-01T19:04:54.937Z,3.30
2018-01-01T19:07:21.877Z,6.00
2018-01-01T19:09:48.881Z,3.40
2018-01-01T19:12:15.126Z,4.23
2018-01-01T19:14:42.060Z,3.27
2018-01-01T19:17:08.245Z,3.20
2018-01-01T19:19:34.503Z,3.27
2018-01-01T19:22:00.706Z,3.67
2018-01-01T19:24:26.924Z,5.10
2018-01-01T19:26:53.863Z,6.67
2018-01-01T19:29:20.765Z,6.77
2018-01-01T19:31:47.049Z,4.30
2018-01-01T19:34:13.246Z,4.60
2018-01-01T19:36:39.399Z,4.23
2018-01-01T19:39:05.638Z,4.43
2018-01-01T19:41:31.963Z,3.80
2018-01-01T19:43:58.451Z,5.17
2018-01-01T19:46:25.431Z,3.90
2018-01-01T19:48:52.376Z,2.60
2018-01-01T19:51:19.316Z,2.70
2018-01-01T19:53:46.297Z,3.67
2018-01-01T19:56:12.549Z,1.63
2018-01-01T19:58:38.724Z,3.00
2018-01-01T20:01:05.671Z,1.97
2018-01-01T20:03:32.589Z,1.63
2018-01-01T20:05:58.769Z,1.67
2018-01-01T20:08:25.066Z,4.20
2018-01-01T20:10:51.980Z,3.03
2018-01-01T20:13:18.178Z,8.70
2018-01-01T20:15:44.392Z,2.30
2018-01-01T20:18:10.649Z,3.33
2018-01-01T20:20:36.874Z,2.37
2018-01-01T20:23:03.071Z,4.53
2018-01-01T20:25:29.273Z,2.57
2018-01-01T20:27:56.198Z,10.53
2018-01-01T20:30:23.125Z,2.00
2018-01-01T20:32:49.306Z,1.40
2018-01-01T20:35:15.494Z,1.57
2018-01-01T20:37:41.708Z,1.00
2018-01-01T20:40:07.927Z,1.80
2018-01-01T20:42:34.137Z,1.40
2018-01-01T20:45:00.374Z,2.00
2018-01-01T20:47:26.638Z,5.40
2018-01-01T20:49:52.884Z,2.03
2018-01-01T20:52:19.843Z,1.43
2018-01-01T20:54:46.777Z,2.00
2018-01-01T20:57:13.770Z,2.27
2018-01-01T20:59:39.982Z,1.33
2018-01-01T21:02:06.261Z,1.73
2018-01-01T21:04:32.459Z,2.10
2018-01-01T21:06:58.662Z,1.33
2018-01-01T21:09:24.882Z,2.10
2018-01-01T21:11:51.073Z,3.50
2018-01-01T21:14:17.296Z,3.80
2018-01-01T21:16:44.226Z,1.90
2018-01-01T21:19:10.411Z,2.20
2018-01-01T21:21:36.654Z,2.20
2018-01-01T21:24:02.886Z,2.70
2018-01-01T21:26:29.054Z,1.90
2018-01-01T21:28:55.262Z,1.40
2018-01-01T21:31:21.484Z,9.07
2018-01-01T21:33:47.685Z,4.60
2018-01-01T21:36:13.881Z,2.20
2018-01-01T21:38:40.825Z,1.73
2018-01-01T21:41:07.805Z,2.90
2018-01-01T21:43:34.046Z,1.50
2018-01-01T21:46:00.279Z,1.17
2018-01-01T21:48:26.451Z,1.40
2018-01-01T21:50:52.610Z,2.70
2018-01-01T21:53:18.814Z,1.80
2018-01-01T21:55:45.753Z,3.77
2018-01-01T21:58:19.734Z,4.40
2018-01-01T22:00:45.944Z,1.53
2018-01-01T22:03:12.122Z,1.70
2018-01-01T22:05:40.057Z,1.50
2018-01-01T22:08:06.257Z,2.30
2018-01-01T22:10:32.408Z,2.03
2018-01-01T22:12:58.582Z,1.70
2018-01-01T22:15:25.520Z,1.43
2018-01-01T22:17:52.423Z,1.23
2018-01-01T22:20:18.590Z,1.73
2018-01-01T22:22:45.488Z,0.80
2018-01-01T22:25:11.612Z,1.23
2018-01-01T22:27:37.757Z,1.20
2018-01-01T22:30:03.975Z,1.20
2018-01-01T22:32:30.155Z,1.60
2018-01-01T22:34:57.130Z,1.80
2018-01-01T22:37:23.318Z,2.43
2018-01-01T22:39:50.248Z,1.40
2018-01-01T22:42:16.437Z,0.93
2018-01-01T22:44:42.675Z,1.00
2018-01-01T22:47:08.905Z,3.17
2018-01-01T22:49:35.137Z,3.13
2018-01-01T22:52:01.338Z,1.13
2018-01-01T22:54:27.504Z,1.60
2018-01-01T22:56:54.427Z,3.07
2018-01-01T22:59:20.641Z,2.00
2018-01-01T23:01:46.893Z,1.30
2018-01-01T23:04:13.097Z,1.33
2018-01-01T23:06:39.326Z,1.60
2018-01-01T23:09:05.514Z,0.93
2018-01-01T23:11:32.415Z,1.20
2018-01-01T23:13:58.667Z,1.27
2018-01-01T23:16:24.854Z,0.67
2018-01-01T23:18:51.031Z,0.80
2018-01-01T23:21:17.225Z,0.50
2018-01-01T23:23:43.416Z,0.80
2018-01-01T23:26:09.587Z,2.00
2018-01-01T23:28:35.772Z,0.80
2018-01-01T23:31:01.962Z,2.20
2018-01-01T23:33:28.926Z,0.80
2018-01-01T23:35:55.859Z,2.03
2018-01-01T23:38:22.869Z,0.60
2018-01-01T23:40:49.054Z,0.53
2018-01-01T23:43:15.267Z,1.63
2018-01-01T23:45:42.258Z,0.60
2018-01-01T23:48:08.369Z,1.80
2018-01-01T23:50:34.570Z,1.70
2018-01-01T23:53:01.467Z,0.50
2018-01-01T23:55:27.673Z,1.10
2018-01-01T23:57:53.803Z,0.50
